createdAt,value
2023-01-28T00:00:13.547Z,70.73
2023-01-28T00:03:02.520Z,71.17
2023-01-28T00:05:34.753Z,71.70
2023-01-28T00:08:03.967Z,71.27
2023-01-28T00:10:33.208Z,71.02
2023-01-28T00:13:03.591Z,71.59
2023-01-28T00:15:32.888Z,71.02
2023-01-28T00:18:01.812Z,71.66
2023-01-28T00:20:31.040Z,71.65
2023-01-28T00:23:00.234Z,71.24
2023-01-28T00:25:29.408Z,70.94
2023-01-28T00:27:58.411Z,71.63
2023-01-28T00:30:28.970Z,71.26
2023-01-28T00:32:58.139Z,70.74
2023-01-28T00:35:27.319Z,70.54
2023-01-28T00:37:56.267Z,71.66
2023-01-28T00:40:25.581Z,70.79
2023-01-28T00:42:54.532Z,70.63
2023-01-28T00:45:23.724Z,71.39
2023-01-28T00:47:54.216Z,70.89
2023-01-28T00:50:23.493Z,71.14
2023-01-28T00:52:52.412Z,70.93
2023-01-28T00:55:21.911Z,71.45
2023-01-28T00:57:51.057Z,70.88
2023-01-28T01:00:21.899Z,70.71
2023-01-28T01:02:51.234Z,70.71
2023-01-28T01:05:21.889Z,70.23
2023-01-28T01:07:50.607Z,69.95
2023-01-28T01:10:20.791Z,70.36
2023-01-28T01:12:50.779Z,70.42
2023-01-28T01:15:20.043Z,70.99
2023-01-28T01:17:50.308Z,70.29
2023-01-28T01:20:23.187Z,70.81
2023-01-28T01:22:53.574Z,70.10
2023-01-28T01:25:23.167Z,70.84
2023-01-28T01:27:52.261Z,70.37
2023-01-28T01:30:22.571Z,70.56
2023-01-28T01:32:51.512Z,70.87
2023-01-28T01:35:22.050Z,69.79
2023-01-28T01:37:50.899Z,70.41
2023-01-28T01:40:20.155Z,70.14
2023-01-28T01:42:49.125Z,69.85
2023-01-28T01:45:18.694Z,69.88
2023-01-28T01:48:00.691Z,70.74
2023-01-28T01:50:36.859Z,69.92
2023-01-28T01:53:10.259Z,70.66
2023-01-28T01:55:44.589Z,70.21
2023-01-28T01:58:16.910Z,70.90
2023-01-28T02:00:47.491Z,70.35
2023-01-28T02:03:20.606Z,70.09
2023-01-28T02:05:51.791Z,70.37
2023-01-28T02:08:23.272Z,69.80
2023-01-28T02:10:56.256Z,70.65
2023-01-28T02:13:28.731Z,70.85
2023-01-28T02:16:00.797Z,70.41
2023-01-28T02:18:29.927Z,70.33
2023-01-28T02:21:28.008Z,70.57
2023-01-28T02:24:11.329Z,70.71
2023-01-28T02:27:09.594Z,70.72
2023-01-28T02:29:51.312Z,70.63
2023-01-28T02:32:26.665Z,71.17
2023-01-28T02:35:05.098Z,70.28
2023-01-28T02:37:39.648Z,70.43
2023-01-28T02:40:14.336Z,70.61
2023-01-28T02:42:53.352Z,70.31
2023-01-28T02:45:46.849Z,70.67
2023-01-28T02:48:17.318Z,70.85
2023-01-28T02:50:57.008Z,70.35
2023-01-28T02:53:45.068Z,71.09
2023-01-28T02:56:29.456Z,70.88
2023-01-28T02:59:23.166Z,70.27
2023-01-28T03:01:58.483Z,70.15
2023-01-28T03:04:33.324Z,70.75
2023-01-28T03:07:08.665Z,70.77
2023-01-28T03:09:43.242Z,70.70
2023-01-28T03:12:37.360Z,71.01
2023-01-28T03:15:29.276Z,71.00
2023-01-28T03:18:20.776Z,70.74
2023-01-28T03:21:13.501Z,70.53
2023-01-28T03:24:12.457Z,70.21
2023-01-28T03:27:06.084Z,70.52
2023-01-28T03:29:54.029Z,70.39
2023-01-28T03:32:43.744Z,70.54
2023-01-28T03:35:35.023Z,71.12
2023-01-28T03:38:18.835Z,70.80
2023-01-28T03:40:52.525Z,70.50
2023-01-28T03:43:23.107Z,71.08
2023-01-28T03:45:52.840Z,71.46
2023-01-28T03:48:23.780Z,71.55
2023-01-28T03:50:56.059Z,70.50
2023-01-28T03:53:28.278Z,70.75
2023-01-28T03:55:58.744Z,70.31
2023-01-28T03:58:46.494Z,71.32
2023-01-28T04:01:16.563Z,70.62
2023-01-28T04:03:46.251Z,71.12
2023-01-28T04:06:23.684Z,70.74
2023-01-28T04:09:16.068Z,70.92
2023-01-28T04:12:11.937Z,70.17
2023-01-28T04:14:48.067Z,70.76
2023-01-28T04:17:24.991Z,70.90
2023-01-28T04:19:54.311Z,71.31
2023-01-28T04:22:25.408Z,71.05
2023-01-28T04:24:54.779Z,71.15
2023-01-28T04:27:23.676Z,71.03
2023-01-28T04:29:53.284Z,70.99
2023-01-28T04:32:50.520Z,71.34
2023-01-28T04:35:29.965Z,70.73
2023-01-28T04:38:11.728Z,71.33
2023-01-28T04:41:04.029Z,71.67
2023-01-28T04:43:35.510Z,70.88
2023-01-28T04:46:29.177Z,70.66
2023-01-28T04:49:04.780Z,70.71
2023-01-28T04:51:54.325Z,70.73
2023-01-28T04:54:24.692Z,71.27
2023-01-28T04:56:56.478Z,70.83
2023-01-28T04:59:25.560Z,70.87
2023-01-28T05:01:54.757Z,71.15
2023-01-28T05:04:24.124Z,71.02
2023-01-28T05:06:54.397Z,71.57
2023-01-28T05:09:31.410Z,71.27
2023-01-28T05:12:00.757Z,70.55
2023-01-28T05:14:32.213Z,70.58
2023-01-28T05:17:10.535Z,71.29
2023-01-28T05:19:40.290Z,70.83
2023-01-28T05:22:16.422Z,70.88
2023-01-28T05:24:51.889Z,71.70
2023-01-28T05:27:25.270Z,71.15
2023-01-28T05:29:55.510Z,71.73
2023-01-28T05:32:24.809Z,71.55
2023-01-28T05:34:53.941Z,71.24
2023-01-28T05:37:23.329Z,71.16
2023-01-28T05:39:57.169Z,71.88
2023-01-28T05:42:26.703Z,71.70
2023-01-28T05:45:04.952Z,70.75
2023-01-28T05:47:44.068Z,71.67
2023-01-28T05:50:36.774Z,71.95
2023-01-28T05:53:38.303Z,71.06
2023-01-28T05:56:10.149Z,72.09
2023-01-28T05:58:40.742Z,71.21
2023-01-28T06:01:10.041Z,71.49
2023-01-28T06:03:44.292Z,71.96
2023-01-28T06:06:14.268Z,71.61
2023-01-28T06:08:43.883Z,71.29
2023-01-28T06:11:14.860Z,72.02
2023-01-28T06:13:45.632Z,71.48
2023-01-28T06:16:44.144Z,71.34
2023-01-28T06:19:33.677Z,71.56
2023-01-28T06:22:02.759Z,71.75
2023-01-28T06:24:32.323Z,71.87
2023-01-28T06:27:02.654Z,71.47
2023-01-28T06:29:32.140Z,72.20
2023-01-28T06:32:01.058Z,71.43
2023-01-28T06:34:30.314Z,71.80
2023-01-28T06:36:59.172Z,71.28
2023-01-28T06:39:31.844Z,71.64
2023-01-28T06:42:02.504Z,71.45
2023-01-28T06:44:51.375Z,71.52
2023-01-28T06:47:20.639Z,72.27
2023-01-28T06:49:49.532Z,71.40
2023-01-28T06:52:18.708Z,71.60
2023-01-28T06:54:47.613Z,72.12
2023-01-28T06:57:18.146Z,72.02
2023-01-28T06:59:47.081Z,71.93
2023-01-28T07:02:16.287Z,71.90
2023-01-28T07:04:45.297Z,72.20
2023-01-28T07:07:14.877Z,72.63
2023-01-28T07:09:43.999Z,72.28
2023-01-28T07:12:13.145Z,72.30
2023-01-28T07:14:43.587Z,71.87
2023-01-28T07:17:12.875Z,72.10
2023-01-28T07:19:41.761Z,71.67
2023-01-28T07:22:10.994Z,71.87
2023-01-28T07:24:39.922Z,72.34
2023-01-28T07:27:12.154Z,72.00
2023-01-28T07:29:42.456Z,71.96
2023-01-28T07:32:11.746Z,72.21
2023-01-28T07:34:43.171Z,71.24
2023-01-28T07:37:12.645Z,71.65
2023-01-28T07:39:41.584Z,72.39
2023-01-28T07:42:11.262Z,71.84
2023-01-28T07:44:49.734Z,71.67
2023-01-28T07:47:19.628Z,71.62
2023-01-28T07:49:48.561Z,71.68
2023-01-28T07:52:17.866Z,71.54
2023-01-28T07:54:47.310Z,71.72
2023-01-28T07:57:23.117Z,72.57
2023-01-28T07:59:53.526Z,72.24
2023-01-28T08:02:22.739Z,71.30
2023-01-28T08:04:51.742Z,72.17
2023-01-28T08:07:21.089Z,71.17
2023-01-28T08:09:49.953Z,72.02
2023-01-28T08:12:19.220Z,71.55
2023-01-28T08:14:48.191Z,71.91
2023-01-28T08:17:18.819Z,72.09
2023-01-28T08:19:47.725Z,72.09
2023-01-28T08:22:16.948Z,71.09
2023-01-28T08:24:46.060Z,71.79
2023-01-28T08:27:15.484Z,71.89
2023-01-28T08:29:44.452Z,71.48
2023-01-28T08:32:13.709Z,71.55
2023-01-28T08:34:44.048Z,71.60
2023-01-28T08:37:13.252Z,71.91
2023-01-28T08:39:44.301Z,72.21
2023-01-28T08:42:14.884Z,72.25
2023-01-28T08:44:43.734Z,71.85
2023-01-28T08:47:12.892Z,72.24
2023-01-28T08:49:43.273Z,71.09
2023-01-28T08:52:12.484Z,71.04
2023-01-28T08:54:41.380Z,71.51
2023-01-28T08:57:11.091Z,71.92
2023-01-28T08:59:45.108Z,71.44
2023-01-28T09:02:30.279Z,71.53
2023-01-28T09:05:01.651Z,71.31
2023-01-28T09:07:30.948Z,72.04
2023-01-28T09:09:59.848Z,71.85
2023-01-28T09:12:29.107Z,70.97
2023-01-28T09:14:58.199Z,71.22
2023-01-28T09:17:27.418Z,71.82
2023-01-28T09:19:56.433Z,71.11
2023-01-28T09:22:27.086Z,71.48
2023-01-28T09:24:56.072Z,71.45
2023-01-28T09:27:25.235Z,71.80
2023-01-28T09:29:54.191Z,71.19
2023-01-28T09:32:24.777Z,71.26
2023-01-28T09:34:53.777Z,70.89
2023-01-28T09:37:23.038Z,71.63
2023-01-28T09:39:53.332Z,72.00
2023-01-28T09:42:58.243Z,71.01
2023-01-28T09:45:33.998Z,71.63
2023-01-28T09:48:07.692Z,70.98
2023-01-28T09:50:39.543Z,71.77
2023-01-28T09:53:14.771Z,71.81
2023-01-28T09:55:47.197Z,71.66
2023-01-28T09:58:18.514Z,71.22
2023-01-28T10:00:55.187Z,70.96
2023-01-28T10:03:42.227Z,71.47
2023-01-28T10:06:23.859Z,71.61
2023-01-28T10:09:31.586Z,71.10
2023-01-28T10:12:15.080Z,70.84
2023-01-28T10:14:57.159Z,71.08
2023-01-28T10:17:32.786Z,71.12
2023-01-28T10:20:07.326Z,71.31
2023-01-28T10:22:43.562Z,71.34
2023-01-28T10:25:21.018Z,71.32
2023-01-28T10:27:52.941Z,70.45
2023-01-28T10:30:25.766Z,70.29
2023-01-28T10:32:58.786Z,71.20
2023-01-28T10:35:29.450Z,70.36
2023-01-28T10:38:01.348Z,70.96
2023-01-28T10:40:31.744Z,70.75
2023-01-28T10:43:02.350Z,70.10
2023-01-28T10:45:37.486Z,70.58
2023-01-28T10:48:16.288Z,70.16
2023-01-28T10:50:53.293Z,70.03
2023-01-28T10:53:34.900Z,70.29
2023-01-28T10:56:06.947Z,69.76
2023-01-28T10:58:48.637Z,70.55
2023-01-28T11:01:18.019Z,70.30
2023-01-28T11:03:56.593Z,69.80
2023-01-28T11:06:28.081Z,70.27
2023-01-28T11:08:59.181Z,70.17
2023-01-28T11:11:30.724Z,70.43
2023-01-28T11:14:01.337Z,70.14
2023-01-28T11:16:31.018Z,68.98
2023-01-28T11:19:04.975Z,69.29
2023-01-28T11:21:36.836Z,70.02
2023-01-28T11:24:15.218Z,69.42
2023-01-28T11:26:49.404Z,69.35
2023-01-28T11:29:29.130Z,69.70
2023-01-28T11:32:00.323Z,69.58
2023-01-28T11:34:31.253Z,69.61
2023-01-28T11:37:05.802Z,68.86
2023-01-28T11:39:34.780Z,69.63
2023-01-28T11:42:17.053Z,69.44
2023-01-28T11:44:49.117Z,68.55
2023-01-28T11:47:37.769Z,68.50
2023-01-28T11:50:24.082Z,69.08
2023-01-28T11:53:19.376Z,68.14
2023-01-28T11:56:02.760Z,69.18
2023-01-28T11:58:45.321Z,69.07
2023-01-28T12:01:23.845Z,68.72
2023-01-28T12:04:14.787Z,68.59
2023-01-28T12:07:00.619Z,68.48
2023-01-28T12:09:37.217Z,68.37
2023-01-28T12:12:23.324Z,68.57
2023-01-28T12:15:14.887Z,68.54
2023-01-28T12:18:00.696Z,68.38
2023-01-28T12:20:39.260Z,68.70
2023-01-28T12:23:26.467Z,68.42
2023-01-28T12:26:08.149Z,68.31
2023-01-28T12:28:53.661Z,69.10
2023-01-28T12:31:39.445Z,68.34
2023-01-28T12:34:34.874Z,68.60
2023-01-28T12:37:09.500Z,68.07
2023-01-28T12:39:54.934Z,68.70
2023-01-28T12:42:32.448Z,69.04
2023-01-28T12:45:06.525Z,68.50
2023-01-28T12:47:40.943Z,68.55
2023-01-28T12:50:18.998Z,69.05
2023-01-28T12:52:53.032Z,69.11
2023-01-28T12:55:36.072Z,68.38
2023-01-28T12:58:07.362Z,68.93
2023-01-28T13:00:41.754Z,68.65
2023-01-28T13:03:17.649Z,68.93
2023-01-28T13:05:51.843Z,68.39
2023-01-28T13:08:26.474Z,69.04
2023-01-28T13:10:56.961Z,68.67
2023-01-28T13:13:32.846Z,69.31
2023-01-28T13:16:03.857Z,68.68
2023-01-28T13:18:43.609Z,68.72
2023-01-28T13:21:19.011Z,68.62
2023-01-28T13:23:49.993Z,69.14
2023-01-28T13:26:43.391Z,69.29
2023-01-28T13:29:30.176Z,68.76
2023-01-28T13:32:00.441Z,68.95
2023-01-28T13:34:36.585Z,68.91
2023-01-28T13:37:30.715Z,69.17
2023-01-28T13:40:09.895Z,68.37
2023-01-28T13:42:38.875Z,69.41
2023-01-28T13:45:24.204Z,69.01
2023-01-28T13:47:56.309Z,68.95
2023-01-28T13:50:29.120Z,69.02
2023-01-28T13:53:04.915Z,68.35
2023-01-28T13:55:44.631Z,68.28
2023-01-28T13:58:44.809Z,68.68
2023-01-28T14:01:56.174Z,68.57
2023-01-28T14:05:03.727Z,69.16
2023-01-28T14:08:08.558Z,69.29
2023-01-28T14:10:53.311Z,68.84
2023-01-28T14:13:42.001Z,68.99
2023-01-28T14:16:23.758Z,69.30
2023-01-28T14:18:53.633Z,68.88
2023-01-28T14:21:23.636Z,69.49
2023-01-28T14:23:54.471Z,69.05
2023-01-28T14:26:32.829Z,69.13
2023-01-28T14:29:30.134Z,68.65
2023-01-28T14:32:00.228Z,69.32
2023-01-28T14:34:33.739Z,69.46
2023-01-28T14:37:07.481Z,68.84
2023-01-28T14:39:46.306Z,68.62
2023-01-28T14:42:21.572Z,68.83
2023-01-28T14:44:56.620Z,69.24
2023-01-28T14:47:42.524Z,69.46
2023-01-28T14:50:32.262Z,69.01
2023-01-28T14:53:22.949Z,68.62
2023-01-28T14:56:00.123Z,68.54
2023-01-28T14:58:35.951Z,69.29
2023-01-28T15:01:05.459Z,68.64
2023-01-28T15:03:35.567Z,68.47
2023-01-28T15:06:07.372Z,69.05
2023-01-28T15:08:36.410Z,68.53
2023-01-28T15:11:10.499Z,68.69
2023-01-28T15:13:44.054Z,69.27
2023-01-28T15:16:19.959Z,68.76
2023-01-28T15:18:50.897Z,68.64
2023-01-28T15:21:24.283Z,69.13
2023-01-28T15:23:56.475Z,68.63
2023-01-28T15:26:28.072Z,68.66
2023-01-28T15:28:58.788Z,69.45
2023-01-28T15:31:30.522Z,69.22
2023-01-28T15:34:01.570Z,69.05
2023-01-28T15:36:32.441Z,68.91
2023-01-28T15:39:01.435Z,69.37
2023-01-28T15:41:34.624Z,68.45
2023-01-28T15:44:05.334Z,69.41
2023-01-28T15:46:34.923Z,68.95
2023-01-28T15:49:05.392Z,69.33
2023-01-28T15:51:35.686Z,68.94
2023-01-28T15:54:08.970Z,68.76
2023-01-28T15:56:38.630Z,68.62
2023-01-28T15:59:19.167Z,68.68
2023-01-28T16:01:48.578Z,69.10
2023-01-28T16:04:28.579Z,69.88
2023-01-28T16:06:59.861Z,69.64
2023-01-28T16:09:31.966Z,69.29
2023-01-28T16:12:05.824Z,68.87
2023-01-28T16:14:47.533Z,69.57
2023-01-28T16:17:20.810Z,68.92
2023-01-28T16:19:53.210Z,69.27
2023-01-28T16:22:28.448Z,69.17
2023-01-28T16:24:57.445Z,69.33
2023-01-28T16:27:28.132Z,69.99
2023-01-28T16:29:58.761Z,70.20
2023-01-28T16:32:32.030Z,69.27
2023-01-28T16:35:02.265Z,69.22
2023-01-28T16:37:32.038Z,70.05
2023-01-28T16:40:02.341Z,69.59
2023-01-28T16:42:34.096Z,69.54
2023-01-28T16:45:04.800Z,70.04
2023-01-28T16:47:35.640Z,69.87
2023-01-28T16:50:04.689Z,70.09
2023-01-28T16:52:34.227Z,70.22
2023-01-28T16:55:04.403Z,69.36
2023-01-28T16:57:37.457Z,69.50
2023-01-28T17:00:09.793Z,69.54
2023-01-28T17:02:39.166Z,70.21
2023-01-28T17:05:08.749Z,69.81
2023-01-28T17:07:38.169Z,69.95
2023-01-28T17:10:08.824Z,69.87
2023-01-28T17:12:41.668Z,69.88
2023-01-28T17:15:14.692Z,70.42
2023-01-28T17:17:44.527Z,69.91
2023-01-28T17:20:13.894Z,69.64
2023-01-28T17:22:43.249Z,69.98
2023-01-28T17:25:12.198Z,69.66
2023-01-28T17:27:41.861Z,70.00
2023-01-28T17:30:13.779Z,70.59
2023-01-28T17:32:43.186Z,70.21
2023-01-28T17:35:12.361Z,70.05
2023-01-28T17:37:42.059Z,70.30
2023-01-28T17:40:13.682Z,70.77
2023-01-28T17:42:44.223Z,70.66
2023-01-28T17:45:14.890Z,70.91
2023-01-28T17:47:44.940Z,70.84
2023-01-28T17:50:13.972Z,70.58
2023-01-28T17:52:43.260Z,70.27
2023-01-28T17:55:12.646Z,70.90
2023-01-28T17:57:44.801Z,70.80
2023-01-28T18:00:19.245Z,71.00
2023-01-28T18:02:52.561Z,70.34
2023-01-28T18:05:22.388Z,70.55
2023-01-28T18:07:52.169Z,70.85
2023-01-28T18:10:21.373Z,70.56
2023-01-28T18:12:50.822Z,71.01
2023-01-28T18:15:21.351Z,70.44
2023-01-28T18:17:51.168Z,70.39
2023-01-28T18:20:20.583Z,70.88
2023-01-28T18:22:50.119Z,71.19
2023-01-28T18:25:20.288Z,71.08
2023-01-28T18:27:49.863Z,70.74
2023-01-28T18:30:20.909Z,70.86
2023-01-28T18:32:50.880Z,71.02
2023-01-28T18:35:20.076Z,70.84
2023-01-28T18:37:49.611Z,71.54
2023-01-28T18:40:18.912Z,71.87
2023-01-28T18:42:48.307Z,71.84
2023-01-28T18:45:17.840Z,72.05
2023-01-28T18:47:49.172Z,71.70
2023-01-28T18:50:19.917Z,71.77
2023-01-28T18:52:49.152Z,71.57
2023-01-28T18:55:19.079Z,71.60
2023-01-28T18:57:48.439Z,71.80
2023-01-28T19:00:18.070Z,71.69
2023-01-28T19:02:49.064Z,71.85
2023-01-28T19:05:18.869Z,71.73
2023-01-28T19:07:48.080Z,72.09
2023-01-28T19:10:19.648Z,71.83
2023-01-28T19:12:49.212Z,72.11
2023-01-28T19:15:18.410Z,72.05
2023-01-28T19:17:49.368Z,72.15
2023-01-28T19:20:19.808Z,72.02
2023-01-28T19:22:50.506Z,72.52
2023-01-28T19:25:19.778Z,72.07
2023-01-28T19:27:48.927Z,72.54
2023-01-28T19:30:18.486Z,72.40
2023-01-28T19:32:50.358Z,72.42
2023-01-28T19:35:19.373Z,72.09
2023-01-28T19:37:48.673Z,72.02
2023-01-28T19:40:18.461Z,72.34
2023-01-28T19:42:47.983Z,72.83
2023-01-28T19:45:17.305Z,72.26
2023-01-28T19:47:48.260Z,72.66
2023-01-28T19:50:17.558Z,72.34
2023-01-28T19:52:46.899Z,71.83
2023-01-28T19:55:16.203Z,71.82
2023-01-28T19:57:45.814Z,71.85
2023-01-28T20:00:15.439Z,72.62
2023-01-28T20:02:44.957Z,72.71
2023-01-28T20:05:15.789Z,72.54
2023-01-28T20:07:45.428Z,72.45
2023-01-28T20:10:14.341Z,72.62
2023-01-28T20:12:44.121Z,72.64
2023-01-28T20:15:13.856Z,72.52
2023-01-28T20:17:43.179Z,72.58
2023-01-28T20:20:14.642Z,73.38
2023-01-28T20:22:44.118Z,72.71
2023-01-28T20:25:13.157Z,73.24
2023-01-28T20:27:42.404Z,72.34
2023-01-28T20:30:12.862Z,72.37
2023-01-28T20:32:42.198Z,72.70
2023-01-28T20:35:11.649Z,72.46
2023-01-28T20:37:42.601Z,72.90
2023-01-28T20:40:13.025Z,72.58
2023-01-28T20:42:42.291Z,72.49
2023-01-28T20:45:11.554Z,73.51
2023-01-28T20:47:41.121Z,73.63
2023-01-28T20:50:11.122Z,73.19
2023-01-28T20:52:42.549Z,72.56
2023-01-28T20:55:13.243Z,72.64
2023-01-28T20:57:44.710Z,72.33
2023-01-28T21:00:15.163Z,73.17
2023-01-28T21:02:46.037Z,73.35
2023-01-28T21:05:15.427Z,72.98
2023-01-28T21:07:46.536Z,72.73
2023-01-28T21:10:15.638Z,73.08
2023-01-28T21:12:45.139Z,73.12
2023-01-28T21:15:14.462Z,72.59
2023-01-28T21:17:43.860Z,73.06
2023-01-28T21:20:14.280Z,73.29
2023-01-28T21:22:45.329Z,73.40
2023-01-28T21:25:16.000Z,73.01
2023-01-28T21:27:45.447Z,73.96
2023-01-28T21:30:15.387Z,73.58
2023-01-28T21:32:45.134Z,73.50
2023-01-28T21:35:14.035Z,74.07
2023-01-28T21:37:48.047Z,73.35
2023-01-28T21:40:17.630Z,73.74
2023-01-28T21:42:47.377Z,73.82
2023-01-28T21:45:16.407Z,73.58
2023-01-28T21:47:45.563Z,73.49
2023-01-28T21:50:14.784Z,73.91
2023-01-28T21:52:44.508Z,73.97
2023-01-28T21:55:14.799Z,73.34
2023-01-28T21:57:44.432Z,73.30
2023-01-28T22:00:13.203Z,73.98
2023-01-28T22:02:42.618Z,73.51
2023-01-28T22:05:11.680Z,73.42
2023-01-28T22:07:40.861Z,73.11
2023-01-28T22:10:11.184Z,73.51
2023-01-28T22:12:41.808Z,73.80
2023-01-28T22:15:11.003Z,73.09
2023-01-28T22:17:40.276Z,73.27
2023-01-28T22:20:11.373Z,73.36
2023-01-28T22:22:40.611Z,73.88
2023-01-28T22:25:10.534Z,73.34
2023-01-28T22:27:41.145Z,73.73
2023-01-28T22:30:10.576Z,73.77
2023-01-28T22:32:39.763Z,73.32
2023-01-28T22:35:09.157Z,73.40
2023-01-28T22:37:39.575Z,73.19
2023-01-28T22:40:09.962Z,73.58
2023-01-28T22:42:41.116Z,73.48
2023-01-28T22:45:11.690Z,73.52
2023-01-28T22:47:43.814Z,73.38
2023-01-28T22:50:14.979Z,72.77
2023-01-28T22:52:44.447Z,73.45
2023-01-28T22:55:13.337Z,72.80
2023-01-28T22:57:44.134Z,73.19
2023-01-28T23:00:16.193Z,72.99
2023-01-28T23:02:45.924Z,72.81
2023-01-28T23:05:14.908Z,72.85
2023-01-28T23:07:44.154Z,73.07
2023-01-28T23:10:14.301Z,72.65
2023-01-28T23:12:45.995Z,73.22
2023-01-28T23:15:32.705Z,72.33
2023-01-28T23:18:19.432Z,72.27
2023-01-28T23:21:06.105Z,73.21
2023-01-28T23:23:53.135Z,72.74
2023-01-28T23:26:22.156Z,72.53
2023-01-28T23:28:53.923Z,73.08
2023-01-28T23:31:22.958Z,72.71
2023-01-28T23:33:52.286Z,72.46
2023-01-28T23:36:21.246Z,72.38
2023-01-28T23:38:50.462Z,72.40
2023-01-28T23:41:19.396Z,72.37
2023-01-28T23:43:48.711Z,72.84
2023-01-28T23:46:22.703Z,72.90
2023-01-28T23:48:56.725Z,72.94
2023-01-28T23:51:25.965Z,72.06
2023-01-28T23:53:55.458Z,72.09
2023-01-28T23:56:24.383Z,71.75
2023-01-28T23:58:53.645Z,72.07
